Flight Track Log - Related Links

Times and Time Zones

All times are in EDT time to prevent confusion due to time zone crossing. See the AAL270 flight status page for this flight to view local times or setup timezone preferences in your user account.

Time Position Orientation Groundspeed Altitude Reporting Facility
EDT Latitude Longitude Course Direction KTS MPH feet Rate Location/Type
Wed 01:23:00 PM 21.2510 -157.6549 102° East  Level FlightAware Approximate
Wed 01:24:00 PM 21.2127 -157.5257 108° East  Level FlightAware Approximate
Wed 01:24:12 PM 21.2010 -157.7760 108° East 271 312 6,500  Level FlightAware ADS-B
Wed 01:24:32 PM 21.1900 -157.7540 118° Southeast 276 318 7,200 2,400 Climbing FlightAware ADS-B
Wed 01:25:07 PM 21.1870 -157.7080 94° East 269 310 8,700 2,300 Climbing FlightAware ADS-B
Wed 01:25:32 PM 21.1880 -157.6790 88° East 269 310 9,500 1,457 Climbing FlightAware ADS-B
Wed 01:26:17 PM 21.1880 -157.6140 90° East 309 356 10,400 1,080 Climbing FlightAware ADS-B
Wed 01:27:12 PM 21.1940 -157.5200 86° East 358 412 11,300 1,400 Climbing FlightAware ADS-B
Wed 01:27:47 PM 21.2110 -157.4480 76° East 362 417 12,500 1,553 Climbing FlightAware ADS-B
Wed 01:28:37 PM 21.2270 -157.3710 77° East 383 441 13,500 1,200 Climbing FlightAware ADS-B
Wed 01:29:17 PM 21.2470 -157.2860 76° East 403 464 14,300 1,320 Climbing FlightAware ADS-B
Wed 01:30:17 PM 21.2710 -157.1750 77° East 418 481 15,700 884 Climbing FlightAware ADS-B
Wed 01:30:52 PM 21.2860 -157.1080 76° East 418 481 15,700  Level FlightAware ADS-B
Wed 01:31:32 PM 21.3000 -157.0390 78° East 418 481 15,700  Level FlightAware ADS-B
Wed 01:32:22 PM 21.3190 -156.9530 77° East 418 481 15,700  Level FlightAware ADS-B
Wed 01:33:02 PM 21.3340 -156.8850 77° East 418 481 15,700  Level FlightAware ADS-B
Wed 01:33:42 PM 21.3490 -156.8160 77° East 418 481 15,700 4,966 Level FlightAware ADS-B
Wed 01:34:29 PM 21.3833 -156.6167 77° East 460 529 22,900 4,710 Climbing Honolulu Center
Wed 01:35:29 PM 21.4000 -156.4833 82° East 480 552 24,100 1,300 Climbing Honolulu Center
Wed 01:36:29 PM 21.4333 -156.3333 77° East 490 564 25,500 1,289 Climbing Honolulu Center
Wed 01:37:30 PM 21.4667 -156.1833 77° East 490 564 26,700 1,240 Climbing Honolulu Center
Wed 01:38:30 PM 21.5000 -156.0500 75° East 500 575 28,000 1,450 Climbing Honolulu Center
Wed 01:39:30 PM 21.5333 -155.9000 77° East 500 575 29,600 1,500 Climbing Honolulu Center
Wed 01:40:30 PM 21.5667 -155.7667 75° East 510 587 31,000 1,550 Climbing Honolulu Center
Wed 01:41:30 PM 21.5833 -155.6167 83° East 490 564 32,700 1,450 Climbing Honolulu Center
Wed 01:42:30 PM 21.6167 -155.4833 75° East 490 564 33,900 1,250 Climbing Honolulu Center
Wed 01:43:30 PM 21.6500 -155.3333 77° East 490 564 35,200 1,200 Climbing Honolulu Center
Wed 01:44:30 PM 21.6833 -155.2000 75° East 490 564 36,300 900 Climbing Honolulu Center
Wed 01:45:30 PM 21.7167 -155.0500 77° East 490 564 37,000 347 Climbing Honolulu Center
Wed 01:46:31 PM 21.7500 -154.9000 77° East 500 575 37,000  Level Honolulu Center
Wed 01:47:31 PM 21.7667 -154.7500 83° East 500 575 37,000  Level Honolulu Center
Wed 01:48:31 PM 21.8000 -154.6000 77° East 500 575 37,000  Level Honolulu Center
Wed 01:49:31 PM 21.8333 -154.4667 75° East 500 575 37,000  Level Honolulu Center
Wed 01:50:31 PM 21.8667 -154.3167 77° East 500 575 37,000  Level Honolulu Center
Wed 01:51:31 PM 21.8833 -154.1667 83° East 500 575 37,000  Level Honolulu Center
Wed 01:52:31 PM 21.9167 -154.0167 77° East 500 575 37,000  Level Honolulu Center
Wed 01:53:31 PM 21.9500 -153.8833 75° East 500 575 37,000  Level Honolulu Center
Wed 01:54:32 PM 21.9833 -153.7333 76° East 500 575 37,000  Level Honolulu Center
Wed 01:55:32 PM 22.0167 -153.5667 78° East 500 575 37,000  Level Honolulu Center
Wed 01:56:32 PM 22.0333 -153.4333 82° East 490 564 37,000  Level Honolulu Center
Wed 01:57:32 PM 22.0667 -153.2833 76° East 480 552 37,000 76 Level Honolulu Center
Wed 01:59:00 PM 22.1059 -153.0860 78° East  Level FlightAware Approximate
Wed 02:06:00 PM 22.2901 -152.1426 78° East  Level FlightAware Approximate
Wed 02:07:00 PM 22.3160 -152.0076 78° East  Level FlightAware Approximate
Wed 02:08:00 PM 22.3422 -151.8653 62° Northeast  Level FlightAware Approximate
Wed 02:09:00 PM 22.4022 -151.7428 62° Northeast  Level FlightAware Approximate
Wed 02:09:38 PM 22.3500 -151.8833 62° Northeast 460 529 38,000  Level Oakland Oceanic (ODAPS)
Wed 02:10:00 PM 22.4621 -151.6201 62° Northeast  Level FlightAware Approximate
Wed 02:11:00 PM 22.5219 -151.4973 62° Northeast  Level FlightAware Approximate
Wed 02:12:00 PM 22.5817 -151.3743 62° Northeast  Level FlightAware Approximate
Wed 02:13:00 PM 22.6413 -151.2513 62° Northeast  Level FlightAware Approximate
Wed 02:14:00 PM 22.7009 -151.1282 62° Northeast  Level FlightAware Approximate
Wed 02:15:00 PM 22.7604 -151.0050 62° Northeast  Level FlightAware Approximate
Wed 02:16:00 PM 22.8863 -150.7805 62° Northeast 460 529 38,000  Level FlightAware Transoceanic
Wed 02:17:00 PM 22.9454 -150.6575 62° Northeast 460 529 38,000  Level FlightAware Transoceanic
Wed 02:18:00 PM 23.0044 -150.5343 63° Northeast 460 529 38,000  Level FlightAware Transoceanic
Wed 02:19:00 PM 23.0634 -150.4110 63° Northeast 460 529 38,000  Level FlightAware Transoceanic
Wed 02:20:00 PM 23.1222 -150.2876 63° Northeast 460 529 38,000  Level FlightAware Transoceanic
Wed 02:21:00 PM 23.1809 -150.1641 63° Northeast 460 529 38,000  Level FlightAware Transoceanic
Wed 02:22:00 PM 23.2396 -150.0405 63° Northeast 460 529 38,000  Level FlightAware Transoceanic
Wed 02:23:00 PM 23.2981 -149.9168 63° Northeast 460 529 38,000  Level FlightAware Transoceanic
Wed 02:24:00 PM 23.3566 -149.7930 63° Northeast 460 529 38,000  Level FlightAware Transoceanic
Wed 02:25:00 PM 23.4149 -149.6690 63° Northeast 460 529 38,000  Level FlightAware Transoceanic
Wed 02:26:00 PM 23.4732 -149.5450 63° Northeast 460 529 38,000  Level FlightAware Transoceanic
Wed 02:27:00 PM 23.5313 -149.4208 63° Northeast 460 529 38,000  Level FlightAware Transoceanic
Wed 02:28:00 PM 23.5893 -149.2966 63° Northeast 460 529 38,000  Level FlightAware Transoceanic
Wed 02:29:00 PM 23.6473 -149.1722 63° Northeast 460 529 38,000  Level FlightAware Transoceanic
Wed 02:30:00 PM 23.7052 -149.0477 63° Northeast 460 529 38,000  Level FlightAware Transoceanic
Wed 02:31:00 PM 23.7629 -148.9231 63° Northeast 460 529 38,000  Level FlightAware Transoceanic
Wed 02:32:00 PM 23.8206 -148.7984 63° Northeast 460 529 38,000  Level FlightAware Transoceanic
Wed 02:33:00 PM 23.8781 -148.6736 63° Northeast 460 529 38,000  Level FlightAware Transoceanic
Wed 02:34:00 PM 23.9356 -148.5487 63° Northeast 460 529 38,000  Level FlightAware Transoceanic
Wed 02:35:00 PM 23.9929 -148.4236 63° Northeast 460 529 38,000  Level FlightAware Transoceanic
Wed 02:36:00 PM 24.0502 -148.2985 63° Northeast 460 529 38,000  Level FlightAware Transoceanic
Wed 02:37:00 PM 24.1073 -148.1732 63° Northeast 460 529 38,000  Level FlightAware Transoceanic
Wed 02:38:00 PM 24.1644 -148.0479 64° Northeast 460 529 38,000  Level FlightAware Transoceanic
Wed 02:39:00 PM 24.2213 -147.9224 64° Northeast 460 529 38,000  Level FlightAware Transoceanic
Wed 02:40:00 PM 24.2782 -147.7968 64° Northeast 460 529 38,000  Level FlightAware Transoceanic
Wed 02:41:00 PM 24.3349 -147.6711 64° Northeast 460 529 38,000  Level FlightAware Transoceanic
Wed 02:42:00 PM 24.3916 -147.5453 64° Northeast 460 529 38,000  Level FlightAware Transoceanic
Wed 02:43:00 PM 24.4481 -147.4193 64° Northeast 460 529 38,000  Level FlightAware Transoceanic
Wed 02:44:00 PM 24.5045 -147.2933 64° Northeast 460 529 38,000  Level FlightAware Transoceanic
Wed 02:45:00 PM 24.5608 -147.1671 64° Northeast 460 529 38,000  Level FlightAware Transoceanic
Wed 02:46:00 PM 24.6171 -147.0408 64° Northeast 460 529 38,000  Level FlightAware Transoceanic
Wed 02:47:00 PM 24.6732 -146.9144 64° Northeast 460 529 38,000  Level FlightAware Transoceanic
Wed 02:48:00 PM 24.7292 -146.7879 64° Northeast 460 529 38,000  Level FlightAware Transoceanic
Wed 02:49:00 PM 24.7851 -146.6613 64° Northeast 460 529 38,000  Level FlightAware Transoceanic
Wed 02:50:00 PM 24.8409 -146.5346 64° Northeast 460 529 38,000  Level FlightAware Transoceanic
Wed 02:51:00 PM 24.8965 -146.4078 64° Northeast 460 529 38,000  Level FlightAware Transoceanic
Wed 02:52:00 PM 24.9521 -146.2808 64° Northeast 460 529 38,000  Level FlightAware Transoceanic
Wed 02:53:00 PM 25.0076 -146.1537 64° Northeast 460 529 38,000  Level FlightAware Transoceanic
Wed 02:54:00 PM 25.0630 -146.0266 64° Northeast 460 529 38,000  Level FlightAware Transoceanic
Wed 02:55:00 PM 25.1182 -145.8993 64° Northeast 460 529 38,000  Level FlightAware Transoceanic
Wed 02:56:00 PM 25.1734 -145.7718 64° Northeast 460 529 38,000  Level FlightAware Transoceanic
Wed 02:57:00 PM 25.2284 -145.6443 65° Northeast 460 529 38,000  Level FlightAware Transoceanic
Wed 02:58:00 PM 25.2833 -145.5167 65° Northeast 460 529 38,000  Level FlightAware Transoceanic
Wed 02:59:00 PM 25.3379 -145.3889 65° Northeast 460 529 38,000  Level FlightAware Transoceanic
Wed 03:00:00 PM 25.3923 -145.2610 65° Northeast 460 529 38,000  Level FlightAware Transoceanic
Wed 03:01:00 PM 25.4466 -145.1329 65° Northeast 460 529 38,000 632 Level FlightAware Transoceanic
Wed 03:01:35 PM 25.2833 -145.5167 65° Northeast 450 518 39,000  Climbing Oakland Oceanic (ODAPS)
Wed 03:02:00 PM 25.5009 -145.0048 65° Northeast 460 529 38,000 -706 Descending FlightAware Transoceanic
Wed 03:03:00 PM 25.5550 -144.8766 65° Northeast 460 529 38,000  Level FlightAware Transoceanic
Wed 03:04:00 PM 25.6089 -144.7482 65° Northeast 460 529 38,000  Level FlightAware Transoceanic
Wed 03:05:00 PM 25.6628 -144.6197 65° Northeast 460 529 38,000  Level FlightAware Transoceanic
Wed 03:06:00 PM 25.7166 -144.4911 65° Northeast 460 529 38,000 500 Level FlightAware Transoceanic
Wed 03:07:00 PM 25.7610 -144.3847 65° Northeast 450 518 39,000 500 Climbing FlightAware Transoceanic
Wed 03:08:00 PM 25.8135 -144.2584 65° Northeast 450 518 39,000  Level FlightAware Transoceanic
Wed 03:09:00 PM 25.8659 -144.1319 65° Northeast 450 518 39,000  Level FlightAware Transoceanic
Wed 03:10:00 PM 25.9182 -144.0054 65° Northeast 450 518 39,000  Level FlightAware Transoceanic
Wed 03:11:00 PM 25.9704 -143.8787 65° Northeast 450 518 39,000  Level FlightAware Transoceanic
Wed 03:12:00 PM 26.0225 -143.7519 65° Northeast 450 518 39,000  Level FlightAware Transoceanic
Wed 03:13:00 PM 26.0745 -143.6250 66° East 450 518 39,000  Level FlightAware Transoceanic
Wed 03:14:00 PM 26.1264 -143.4980 66° East 450 518 39,000  Level FlightAware Transoceanic
Wed 03:15:00 PM 26.1781 -143.3709 66° East 450 518 39,000  Level FlightAware Transoceanic
Wed 03:16:00 PM 26.2298 -143.2437 66° East 450 518 39,000  Level FlightAware Transoceanic
Wed 03:17:00 PM 26.2813 -143.1163 66° East 450 518 39,000  Level FlightAware Transoceanic
Wed 03:18:00 PM 26.3327 -142.9889 66° East 450 518 39,000  Level FlightAware Transoceanic
Wed 03:19:00 PM 26.3840 -142.8613 66° East 450 518 39,000  Level FlightAware Transoceanic
Wed 03:20:00 PM 26.4352 -142.7336 66° East 450 518 39,000  Level FlightAware Transoceanic
Wed 03:21:00 PM 26.4863 -142.6058 66° East 450 518 39,000  Level FlightAware Transoceanic
Wed 03:22:00 PM 26.5373 -142.4779 66° East 450 518 39,000  Level FlightAware Transoceanic
Wed 03:23:00 PM 26.5881 -142.3499 66° East 450 518 39,000  Level FlightAware Transoceanic
Wed 03:24:00 PM 26.6389 -142.2217 66° East 450 518 39,000  Level FlightAware Transoceanic
Wed 03:25:00 PM 26.6895 -142.0935 66° East 450 518 39,000  Level FlightAware Transoceanic
Wed 03:26:00 PM 26.7400 -141.9651 66° East 450 518 39,000  Level FlightAware Transoceanic
Wed 03:27:00 PM 26.7904 -141.8367 66° East 450 518 39,000  Level FlightAware Transoceanic
Wed 03:28:00 PM 26.8407 -141.7081 66° East 450 518 39,000  Level FlightAware Transoceanic
Wed 03:29:00 PM 26.8908 -141.5793 66° East 450 518 39,000  Level FlightAware Transoceanic
Wed 03:30:00 PM 26.9409 -141.4505 66° East 450 518 39,000  Level FlightAware Transoceanic
Wed 03:31:00 PM 26.9908 -141.3216 67° East 450 518 39,000  Level FlightAware Transoceanic
Wed 03:32:00 PM 27.0406 -141.1925 67° East 450 518 39,000  Level FlightAware Transoceanic
Wed 03:33:00 PM 27.0903 -141.0634 67° East 450 518 39,000  Level FlightAware Transoceanic
Wed 03:34:00 PM 27.1399 -140.9341 67° East 450 518 39,000  Level FlightAware Transoceanic
Wed 03:35:00 PM 27.1893 -140.8047 67° East 450 518 39,000  Level FlightAware Transoceanic
Wed 03:36:00 PM 27.2386 -140.6752 67° East 450 518 39,000  Level FlightAware Transoceanic
Wed 03:37:00 PM 27.2879 -140.5456 67° East 450 518 39,000  Level FlightAware Transoceanic
Wed 03:38:00 PM 27.3370 -140.4158 67° East 450 518 39,000  Level FlightAware Transoceanic
Wed 03:39:00 PM 27.3859 -140.2860 67° East 450 518 39,000  Level FlightAware Transoceanic
Wed 03:40:00 PM 27.4348 -140.1560 67° East 450 518 39,000  Level FlightAware Transoceanic
Wed 03:41:00 PM 27.4835 -140.0259 67° East 450 518 39,000  Level FlightAware Transoceanic
Wed 03:42:00 PM 27.5322 -139.8957 67° East 450 518 39,000  Level FlightAware Transoceanic
Wed 03:43:00 PM 27.5806 -139.7654 67° East 450 518 39,000  Level FlightAware Transoceanic
Wed 03:44:00 PM 27.6290 -139.6350 67° East 450 518 39,000  Level FlightAware Transoceanic
Wed 03:45:00 PM 27.6773 -139.5044 67° East 450 518 39,000  Level FlightAware Transoceanic
Wed 03:46:00 PM 27.7254 -139.3738 67° East 450 518 39,000  Level FlightAware Transoceanic
Wed 03:47:00 PM 27.7734 -139.2430 68° East 450 518 39,000  Level FlightAware Transoceanic
Wed 03:48:00 PM 27.8213 -139.1121 68° East 450 518 39,000  Level FlightAware Transoceanic
Wed 03:49:00 PM 27.8690 -138.9811 68° East 450 518 39,000  Level FlightAware Transoceanic
Wed 03:50:00 PM 27.9167 -138.8500 77° East 450 518 39,000  Level FlightAware Transoceanic
Wed 03:51:00 PM 27.9463 -138.7041 77° East 450 518 39,000  Level FlightAware Transoceanic
Wed 03:52:00 PM 27.9757 -138.5582 77° East 450 518 39,000  Level FlightAware Transoceanic
Wed 03:53:00 PM 28.0050 -138.4122 77° East 450 518 39,000  Level FlightAware Transoceanic
Wed 03:53:42 PM 27.9167 -138.8500 77° East 477 549 39,000  Level Oakland Oceanic (ODAPS)
Wed 03:54:00 PM 28.0341 -138.2661 77° East 450 518 39,000  Level FlightAware Transoceanic
Wed 03:54:21 PM 27.9167 -138.8500 77° East 477 549 39,000  Level Oakland Oceanic (ODAPS)
Wed 03:55:00 PM 28.0631 -138.1199 77° East 450 518 39,000  Level FlightAware Transoceanic
Wed 03:56:00 PM 28.0919 -137.9736 77° East 450 518 39,000  Level FlightAware Transoceanic
Wed 03:57:00 PM 28.1205 -137.8273 78° East 450 518 39,000  Level FlightAware Transoceanic
Wed 03:58:00 PM 28.1490 -137.6809 78° East 450 518 39,000  Level FlightAware Transoceanic
Wed 03:59:00 PM 28.1490 -137.6809 78° East 477 549 39,000  Level FlightAware Transoceanic
Wed 04:00:00 PM 28.1774 -137.5344 78° East 477 549 39,000  Level FlightAware Transoceanic
Wed 04:01:00 PM 28.2056 -137.3878 78° East 477 549 39,000  Level FlightAware Transoceanic
Wed 04:02:00 PM 28.2336 -137.2412 78° East 477 549 39,000  Level FlightAware Transoceanic
Wed 04:03:00 PM 28.2615 -137.0945 78° East 477 549 39,000  Level FlightAware Transoceanic
Wed 04:04:00 PM 28.2892 -136.9477 78° East 477 549 39,000  Level FlightAware Transoceanic
Wed 04:05:00 PM 28.3168 -136.8008 78° East 477 549 39,000  Level FlightAware Transoceanic
Wed 04:06:00 PM 28.3442 -136.6538 78° East 477 549 39,000  Level FlightAware Transoceanic
Wed 04:07:00 PM 28.3714 -136.5068 78° East 477 549 39,000  Level FlightAware Transoceanic
Wed 04:08:00 PM 28.3985 -136.3597 78° East 477 549 39,000  Level FlightAware Transoceanic
Wed 04:09:00 PM 28.4255 -136.2125 78° East 477 549 39,000  Level FlightAware Transoceanic
Wed 04:10:00 PM 28.4522 -136.0653 78° East 477 549 39,000  Level FlightAware Transoceanic
Wed 04:11:00 PM 28.4789 -135.9179 78° East 477 549 39,000  Level FlightAware Transoceanic
Wed 04:12:00 PM 28.5053 -135.7705 78° East 477 549 39,000  Level FlightAware Transoceanic
Wed 04:13:00 PM 28.5316 -135.6231 79° East 477 549 39,000  Level FlightAware Transoceanic
Wed 04:14:00 PM 28.5578 -135.4755 79° East 477 549 39,000  Level FlightAware Transoceanic
Wed 04:15:00 PM 28.5837 -135.3279 79° East 477 549 39,000  Level FlightAware Transoceanic
Wed 04:16:00 PM 28.6096 -135.1802 79° East 477 549 39,000  Level FlightAware Transoceanic
Wed 04:17:00 PM 28.6352 -135.0324 79° East 477 549 39,000  Level FlightAware Transoceanic
Wed 04:18:00 PM 28.6607 -134.8846 79° East 477 549 39,000  Level FlightAware Transoceanic
Wed 04:19:00 PM 28.6861 -134.7367 79° East 477 549 39,000  Level FlightAware Transoceanic
Wed 04:20:00 PM 28.7113 -134.5887 79° East 477 549 39,000  Level FlightAware Transoceanic
Wed 04:21:00 PM 28.7363 -134.4406 79° East 477 549 39,000  Level FlightAware Transoceanic
Wed 04:22:00 PM 28.7611 -134.2925 79° East 477 549 39,000  Level FlightAware Transoceanic
Wed 04:23:00 PM 28.7858 -134.1443 79° East 477 549 39,000  Level FlightAware Transoceanic
Wed 04:24:00 PM 28.8104 -133.9961 79° East 477 549 39,000  Level FlightAware Transoceanic
Wed 04:25:00 PM 28.8347 -133.8477 79° East 477 549 39,000  Level FlightAware Transoceanic
Wed 04:26:00 PM 28.8589 -133.6993 79° East 477 549 39,000  Level FlightAware Transoceanic
Wed 04:27:00 PM 28.8830 -133.5509 80° East 477 549 39,000  Level FlightAware Transoceanic
Wed 04:28:00 PM 28.9069 -133.4023 80° East 477 549 39,000  Level FlightAware Transoceanic
Wed 04:28:20 PM 27.9167 -138.8500 77° East 477 549 39,000  Level Oakland Oceanic (ODAPS)
Wed 04:29:00 PM 28.9306 -133.2537 80° East 477 549 39,000  Level FlightAware Transoceanic
Wed 04:30:00 PM 28.9541 -133.1050 80° East 477 549 39,000  Level FlightAware Transoceanic
Wed 04:31:00 PM 28.9775 -132.9563 80° East 477 549 39,000  Level FlightAware Transoceanic
Wed 04:32:00 PM 29.0008 -132.8075 80° East 477 549 39,000  Level FlightAware Transoceanic
Wed 04:33:00 PM 29.0238 -132.6586 80° East 477 549 39,000  Level FlightAware Transoceanic
Wed 04:34:00 PM 29.0467 -132.5097 80° East 477 549 39,000  Level FlightAware Transoceanic
Wed 04:35:00 PM 29.0695 -132.3607 80° East 477 549 39,000  Level FlightAware Transoceanic
Wed 04:36:00 PM 29.0920 -132.2116 80° East 477 549 39,000  Level FlightAware Transoceanic
Wed 04:37:00 PM 29.1145 -132.0624 80° East 477 549 39,000  Level FlightAware Transoceanic
Wed 04:38:00 PM 29.1367 -131.9132 80° East 477 549 39,000  Level FlightAware Transoceanic
Wed 04:39:00 PM 29.1588 -131.7640 80° East 477 549 39,000  Level FlightAware Transoceanic
Wed 04:40:00 PM 29.1807 -131.6146 80° East 477 549 39,000  Level FlightAware Transoceanic
Wed 04:41:00 PM 29.2024 -131.4652 81° East 477 549 39,000  Level FlightAware Transoceanic
Wed 04:42:00 PM 29.2240 -131.3158 81° East 477 549 39,000  Level FlightAware Transoceanic
Wed 04:43:00 PM 29.2454 -131.1662 81° East 477 549 39,000  Level FlightAware Transoceanic
Wed 04:44:00 PM 29.2667 -131.0167 72° East 477 549 39,000  Level FlightAware Transoceanic
Wed 04:45:00 PM 29.3089 -130.8672 72° East 477 549 39,000  Level FlightAware Transoceanic
Wed 04:46:00 PM 29.3510 -130.7175 72° East 477 549 39,000  Level FlightAware Transoceanic
Wed 04:47:00 PM 29.3929 -130.5678 72° East 477 549 39,000  Level FlightAware Transoceanic
Wed 04:47:47 PM 29.2667 -131.0167 72° East 475 547 39,000  Level Oakland Oceanic (ODAPS)
Wed 04:48:00 PM 29.4347 -130.4179 72° East 477 549 39,000  Level FlightAware Transoceanic
Wed 04:49:00 PM 29.4762 -130.2679 72° East 477 549 39,000  Level FlightAware Transoceanic
Wed 04:50:00 PM 29.5177 -130.1178 72° East 477 549 39,000  Level FlightAware Transoceanic
Wed 04:51:00 PM 29.5589 -129.9676 73° East 477 549 39,000  Level FlightAware Transoceanic
Wed 04:52:00 PM 29.6000 -129.8172 73° East 477 549 39,000  Level FlightAware Transoceanic
Wed 04:53:00 PM 29.6409 -129.6667 73° East 477 549 39,000  Level FlightAware Transoceanic
Wed 04:54:00 PM 29.6657 -129.5752 73° East 475 547 39,000  Level FlightAware Transoceanic
Wed 04:55:00 PM 29.7047 -129.4304 73° East 475 547 39,000  Level FlightAware Transoceanic
Wed 04:56:00 PM 29.7436 -129.2856 73° East 475 547 39,000  Level FlightAware Transoceanic
Wed 04:57:00 PM 29.7823 -129.1406 73° East 475 547 39,000  Level FlightAware Transoceanic
Wed 04:58:00 PM 29.8209 -128.9955 73° East 475 547 39,000  Level FlightAware Transoceanic
Wed 04:59:00 PM 29.8593 -128.8503 73° East 475 547 39,000  Level FlightAware Transoceanic
Wed 05:00:00 PM 29.8976 -128.7049 73° East 475 547 39,000  Level FlightAware Transoceanic
Wed 05:01:00 PM 29.9356 -128.5595 73° East 475 547 39,000  Level FlightAware Transoceanic
Wed 05:02:00 PM 29.9736 -128.4139 73° East 475 547 39,000  Level FlightAware Transoceanic
Wed 05:03:00 PM 30.0114 -128.2683 73° East 475 547 39,000  Level FlightAware Transoceanic
Wed 05:04:00 PM 30.0490 -128.1225 73° East 475 547 39,000  Level FlightAware Transoceanic
Wed 05:05:00 PM 30.0864 -127.9766 74° East 475 547 39,000  Level FlightAware Transoceanic
Wed 05:06:00 PM 30.1237 -127.8306 74° East 475 547 39,000  Level FlightAware Transoceanic
Wed 05:07:00 PM 30.1608 -127.6845 74° East 475 547 39,000  Level FlightAware Transoceanic
Wed 05:08:00 PM 30.1978 -127.5383 74° East 475 547 39,000  Level FlightAware Transoceanic
Wed 05:09:00 PM 30.2346 -127.3920 74° East 475 547 39,000  Level FlightAware Transoceanic
Wed 05:10:00 PM 30.2712 -127.2456 74° East 475 547 39,000  Level FlightAware Transoceanic
Wed 05:11:00 PM 30.3077 -127.0990 74° East 475 547 39,000  Level FlightAware Transoceanic
Wed 05:12:00 PM 30.3440 -126.9524 74° East 475 547 39,000  Level FlightAware Transoceanic
Wed 05:13:00 PM 30.3802 -126.8056 74° East 475 547 39,000  Level FlightAware Transoceanic
Wed 05:14:00 PM 30.4162 -126.6587 74° East 475 547 39,000  Level FlightAware Transoceanic
Wed 05:15:00 PM 30.4520 -126.5118 74° East 475 547 39,000  Level FlightAware Transoceanic
Wed 05:16:00 PM 30.4876 -126.3647 74° East 475 547 39,000  Level FlightAware Transoceanic
Wed 05:17:00 PM 30.5231 -126.2175 74° East 475 547 39,000  Level FlightAware Transoceanic
Wed 05:18:00 PM 30.5585 -126.0702 74° East 475 547 39,000  Level FlightAware Transoceanic
Wed 05:19:00 PM 30.5936 -125.9228 75° East 475 547 39,000  Level FlightAware Transoceanic
Wed 05:20:00 PM 30.6286 -125.7753 75° East 475 547 39,000  Level FlightAware Transoceanic
Wed 05:21:00 PM 30.6634 -125.6277 75° East 475 547 39,000  Level FlightAware Transoceanic
Wed 05:22:00 PM 30.6981 -125.4799 75° East 475 547 39,000  Level FlightAware Transoceanic
Wed 05:23:00 PM 30.7326 -125.3321 75° East 475 547 39,000  Level FlightAware Transoceanic
Wed 05:24:00 PM 30.7669 -125.1842 75° East 475 547 39,000  Level FlightAware Transoceanic
Wed 05:25:00 PM 30.8011 -125.0361 75° East 475 547 39,000  Level FlightAware Transoceanic
Wed 05:26:00 PM 30.8351 -124.8880 75° East 475 547 39,000  Level FlightAware Transoceanic
Wed 05:27:00 PM 30.8689 -124.7397 75° East 475 547 39,000  Level FlightAware Transoceanic
Wed 05:28:00 PM 30.9025 -124.5914 75° East 475 547 39,000  Level FlightAware Transoceanic
Wed 05:29:00 PM 30.9360 -124.4429 75° East 475 547 39,000  Level FlightAware Transoceanic
Wed 05:30:00 PM 30.9693 -124.2944 75° East 475 547 39,000  Level FlightAware Transoceanic
Wed 05:31:00 PM 31.0025 -124.1457 75° East 475 547 39,000  Level FlightAware Transoceanic
Wed 05:32:00 PM 31.0354 -123.9969 76° East 475 547 39,000  Level FlightAware Transoceanic
Wed 05:33:00 PM 31.0683 -123.8481 76° East 475 547 39,000  Level FlightAware Transoceanic
Wed 05:34:00 PM 31.1009 -123.6991 76° East 475 547 39,000  Level FlightAware Transoceanic
Wed 05:35:00 PM 31.1333 -123.5500 77° East 475 547 39,000  Level FlightAware Transoceanic
Wed 05:36:00 PM 31.1643 -123.3971 77° East 475 547 39,000  Level FlightAware Transoceanic
Wed 05:37:00 PM 31.1950 -123.2440 77° East 475 547 39,000  Level FlightAware Transoceanic
Wed 05:37:22 PM 31.2011 -123.1372 77° East 471 542 39,000  Level Los Angeles Center
Wed 05:38:00 PM 31.2256 -123.0909 77° East 475 547 39,000  Level FlightAware Transoceanic
Wed 05:38:24 PM 31.2306 -122.9828 77° East 489 563 39,000  Level Los Angeles Center
Wed 05:39:00 PM 31.2560 -122.9377 77° East 475 547 39,000  Level FlightAware Transoceanic
Wed 05:39:26 PM 31.2625 -122.8322 76° East 484 557 39,000  Level Los Angeles Center
Wed 05:40:00 PM 31.2862 -122.7843 77° East 475 547 39,000  Level FlightAware Transoceanic
Wed 05:40:28 PM 31.2997 -122.6486 77° East 484 557 39,000  Level Los Angeles Center
Wed 05:41:00 PM 31.3163 -122.6309 77° East 475 547 39,000  Level FlightAware Transoceanic
Wed 05:41:30 PM 31.3308 -122.4975 76° East 483 556 39,000  Level Los Angeles Center
Wed 05:42:00 PM 31.3461 -122.4774 77° East 475 547 39,000  Level FlightAware Transoceanic
Wed 05:42:32 PM 31.3617 -122.3453 77° East 482 555 39,000  Level Los Angeles Center
Wed 05:43:35 PM 31.3925 -122.1922 77° East 483 556 39,000  Level Los Angeles Center
Wed 05:44:37 PM 31.4228 -122.0386 77° East 484 557 39,000  Level Los Angeles Center
Wed 05:45:39 PM 31.4547 -121.8928 76° East 479 551 39,000  Level Los Angeles Center
Wed 05:46:41 PM 31.4925 -121.7153 76° East 473 544 39,000  Level Los Angeles Center
Wed 05:47:43 PM 31.5203 -121.5617 78° East 477 549 39,000  Level Los Angeles Center
Wed 05:48:45 PM 31.5497 -121.4067 77° East 483 556 39,000  Level Los Angeles Center
Wed 05:49:47 PM 31.5975 -121.2764 67° East 469 540 39,000  Level Los Angeles Center
Wed 05:50:49 PM 31.6492 -121.1342 67° East 472 543 39,000  Level Los Angeles Center
Wed 05:51:51 PM 31.7081 -120.9614 68° East 475 547 39,000  Level Los Angeles Center
Wed 05:52:54 PM 31.7569 -120.8186 68° East 475 547 39,000  Level Los Angeles Center
Wed 05:53:56 PM 31.8061 -120.6733 68° East 472 543 39,000  Level Los Angeles Center
Wed 05:54:58 PM 31.8525 -120.5344 69° East 468 539 39,000 -70 Level Los Angeles Center
Wed 06:01:02 PM 32.3300 -119.7790 69° East 456 525 38,500 -415 Descending FlightAware ADS-B
Wed 06:01:57 PM 32.4130 -119.6740 47° Northeast 457 526 36,100 -2,653 Descending FlightAware ADS-B
Wed 06:02:37 PM 32.4710 -119.6000 47° Northeast 461 531 34,300 -2,824 Descending FlightAware ADS-B
Wed 06:03:22 PM 32.5350 -119.5170 48° Northeast 463 533 32,100 -3,035 Descending FlightAware ADS-B
Wed 06:04:02 PM 32.5950 -119.4410 47° Northeast 472 543 30,000 -2,175 Descending FlightAware ADS-B
Wed 06:04:42 PM 32.6500 -119.3690 48° Northeast 474 545 29,200 -600 Descending FlightAware ADS-B
Wed 06:05:22 PM 32.7010 -119.3050 47° Northeast 474 545 29,200  Level FlightAware ADS-B
Wed 06:06:12 PM 32.7650 -119.2240 47° Northeast 474 545 29,200  Level FlightAware ADS-B
Wed 06:06:52 PM 32.8160 -119.1590 47° Northeast 474 545 29,200  Level FlightAware ADS-B
Wed 06:07:32 PM 32.8660 -119.0940 48° Northeast 474 545 29,200  Level FlightAware ADS-B
Wed 06:08:12 PM 32.9170 -119.0290 47° Northeast 474 545 29,200 -3,175 Level FlightAware ADS-B
Wed 06:12:57 PM 33.2910 -118.5330 48° Northeast 323 372 12,000 -2,907 Descending FlightAware ADS-B
Wed 06:14:07 PM 33.3590 -118.4420 48° Northeast 326 375 12,000  Level FlightAware ADS-B
Wed 06:14:37 PM 33.3880 -118.3920 55° Northeast 327 376 12,000  Level FlightAware ADS-B
Wed 06:15:17 PM 33.4010 -118.3210 78° East 333 383 12,000  Level FlightAware ADS-B
Wed 06:15:57 PM 33.4100 -118.2480 82° East 332 382 12,000 -71 Level FlightAware ADS-B
Wed 06:16:42 PM 33.4220 -118.1650 80° East 323 372 11,900 -212 Descending FlightAware ADS-B
Wed 06:17:22 PM 33.4460 -118.1050 64° Northeast 294 338 11,700 -776 Descending FlightAware ADS-B
Wed 06:18:07 PM 33.4930 -118.0640 36° Northeast 283 326 10,800 -1,200 Descending FlightAware ADS-B
Wed 06:18:47 PM 33.5360 -118.0280 35° Northeast 274 315 10,000 -1,457 Descending FlightAware ADS-B
Wed 06:19:17 PM 33.5690 -118.0050 30° Northeast 281 323 9,100 -1,636 Descending FlightAware ADS-B
Wed 06:19:42 PM 33.6010 -117.9890 23° Northeast 287 330 8,500 -1,500 Descending FlightAware ADS-B
Wed 06:19:57 PM 33.6200 -117.9890 360° North 290 334 8,100 -1,200 Descending FlightAware ADS-B
Wed 06:20:27 PM 33.6580 -117.9950 353° North 283 326 7,600 -873 Descending FlightAware ADS-B
Wed 06:20:52 PM 33.6910 -118.0050 346° North 270 311 7,300 -600 Descending FlightAware ADS-B
Wed 06:21:07 PM 33.7070 -118.0110 343° North 262 302 7,200 -600 Descending FlightAware ADS-B
Wed 06:21:32 PM 33.7370 -118.0220 343° North 249 287 6,900 -218 Descending FlightAware ADS-B
Wed 06:22:02 PM 33.7710 -118.0340 344° North 250 288 7,000 133 Climbing FlightAware ADS-B
Wed 06:22:17 PM 33.7860 -118.0390 345° North 250 288 7,000 -450 Level FlightAware ADS-B
Wed 06:22:42 PM 33.8140 -118.0490 343° North 241 277 6,700 -750 Descending FlightAware ADS-B
Wed 06:22:57 PM 33.8300 -118.0480 North 235 270 6,500 -1,000 Descending FlightAware ADS-B
Wed 06:23:12 PM 33.8470 -118.0440 11° North 233 268 6,200 -1,050 Descending FlightAware ADS-B
Wed 06:23:37 PM 33.8720 -118.0400 North 229 264 5,800 -873 Descending FlightAware ADS-B
Wed 06:24:07 PM 33.9040 -118.0340 North 221 254 5,400 -933 Descending FlightAware ADS-B
Wed 06:24:22 PM 33.9200 -118.0360 354° North 228 262 5,100 -1,000 Descending FlightAware ADS-B
Wed 06:24:37 PM 33.9310 -118.0470 320° Northwest 237 273 4,900 -1,000 Descending FlightAware ADS-B
Wed 06:24:52 PM 33.9390 -118.0670 296° West 244 281 4,600 -1,200 Descending FlightAware ADS-B
Wed 06:25:17 PM 33.9440 -118.0990 281° West 242 278 4,100 -655 Descending FlightAware ADS-B
Wed 06:25:47 PM 33.9500 -118.1370 281° West 213 245 4,000 -500 Descending FlightAware ADS-B
Wed 06:26:17 PM 33.9550 -118.1710 280° West 200 230 3,600 -750 Descending FlightAware ADS-B
Wed 06:26:27 PM 33.9570 -118.1830 281° West 200 230 3,500 -900 Descending FlightAware ADS-B
Wed 06:26:57 PM 33.9570 -118.2150 270° West 198 228 3,000 -960 Descending FlightAware ADS-B
Wed 06:27:17 PM 33.9560 -118.2360 267° West 194 223 2,700 -480 Descending FlightAware ADS-B
Wed 06:27:47 PM 33.9530 -118.2670 263° West 193 222 2,600 -1,114 Descending FlightAware ADS-B
Wed 06:28:27 PM 33.9490 -118.3060 263° West 166 191 1,400 -1,108 Descending FlightAware ADS-B
Wed 06:28:52 PM 33.9460 -118.3280 261° West 166 191 1,400 -800 Level FlightAware ADS-B
Wed 06:29:27 PM 33.9440 -118.3470 263° West 142 163 600 -1,108 Descending FlightAware ADS-B
Wed 06:29:57 PM 33.9410 -118.3680 260° West 133 153 200 -436 Descending FlightAware ADS-B
Wed 06:30:22 PM 33.9390 -118.3860 262° West 133 153 200  Level FlightAware ADS-B

Login

Don't have an account? Register now (free) for customized features, flight alerts, and more!